createdAt,value
2023-03-19T00:00:56.151Z,100551.06
2023-03-19T00:03:23.745Z,100548.28
2023-03-19T00:05:53.092Z,100542.41
2023-03-19T00:08:20.928Z,100543.50
2023-03-19T00:10:48.525Z,100547.94
2023-03-19T00:13:16.356Z,100545.44
2023-03-19T00:15:47.150Z,100547.09
2023-03-19T00:18:15.174Z,100540.97
2023-03-19T00:20:44.737Z,100541.81
2023-03-19T00:23:12.596Z,100547.22
2023-03-19T00:25:42.071Z,100550.09
2023-03-19T00:28:10.097Z,100545.91
2023-03-19T00:30:37.795Z,100541.47
2023-03-19T00:33:08.063Z,100548.69
2023-03-19T00:35:36.249Z,100546.38
2023-03-19T00:38:04.606Z,100551.91
2023-03-19T00:40:34.815Z,100556.34
2023-03-19T00:43:02.448Z,100560.69
2023-03-19T00:45:30.876Z,100559.00
2023-03-19T00:47:59.019Z,100565.13
2023-03-19T00:50:28.546Z,100573.91
2023-03-19T00:52:57.106Z,100580.03
2023-03-19T00:55:25.543Z,100573.81
2023-03-19T00:57:53.171Z,100575.97
2023-03-19T01:00:21.612Z,100576.09
2023-03-19T01:02:49.286Z,100565.50
2023-03-19T01:05:18.252Z,100563.59
2023-03-19T01:07:47.886Z,100561.78
2023-03-19T01:10:16.811Z,100554.81
2023-03-19T01:12:44.515Z,100561.78
2023-03-19T01:15:13.642Z,100564.31
2023-03-19T01:17:42.268Z,100551.78
2023-03-19T01:20:13.156Z,100556.13
2023-03-19T01:22:42.806Z,100556.59
2023-03-19T01:25:16.015Z,100559.97
2023-03-19T01:27:53.528Z,100569.47
2023-03-19T01:30:21.791Z,100582.47
2023-03-19T01:33:27.947Z,100582.22
2023-03-19T01:36:05.284Z,100580.31
2023-03-19T01:38:51.651Z,100585.34
2023-03-19T01:41:21.652Z,100580.53
2023-03-19T01:43:51.048Z,100582.84
2023-03-19T01:46:39.349Z,100565.25
2023-03-19T01:49:28.513Z,100565.50
2023-03-19T01:52:16.890Z,100567.28
2023-03-19T01:55:17.885Z,100565.50
2023-03-19T01:58:08.712Z,100555.38
2023-03-19T02:00:59.112Z,100553.69
2023-03-19T02:03:27.979Z,100552.84
2023-03-19T02:06:06.230Z,100557.06
2023-03-19T02:08:34.838Z,100550.66
2023-03-19T02:11:02.615Z,100548.88
2023-03-19T02:13:32.061Z,100548.00
2023-03-19T02:15:59.809Z,100550.66
2023-03-19T02:18:27.631Z,100553.19
2023-03-19T02:21:01.883Z,100548.88
2023-03-19T02:23:39.359Z,100549.72
2023-03-19T02:26:17.964Z,100554.16
2023-03-19T02:28:50.053Z,100553.44
2023-03-19T02:31:25.835Z,100558.16
2023-03-19T02:33:58.634Z,100553.91
2023-03-19T02:36:30.730Z,100550.56
2023-03-19T02:39:01.986Z,100553.34
2023-03-19T02:41:33.373Z,100549.97
2023-03-19T02:44:27.820Z,100551.06
2023-03-19T02:46:55.827Z,100555.50
2023-03-19T02:49:25.160Z,100552.25
2023-03-19T02:51:52.896Z,100552.75
2023-03-19T02:54:21.081Z,100556.50
2023-03-19T02:56:52.294Z,100555.03
2023-03-19T02:59:20.610Z,100547.22
2023-03-19T03:01:48.622Z,100550.09
2023-03-19T03:04:16.654Z,100543.13
2023-03-19T03:06:45.658Z,100544.09
2023-03-19T03:09:14.004Z,100552.28
2023-03-19T03:11:42.810Z,100546.41
2023-03-19T03:14:12.871Z,100549.13
2023-03-19T03:16:41.845Z,100552.66
2023-03-19T03:19:09.521Z,100548.69
2023-03-19T03:21:37.208Z,100556.97
2023-03-19T03:24:05.806Z,100551.91
2023-03-19T03:26:38.717Z,100559.97
2023-03-19T03:29:08.091Z,100551.53
2023-03-19T03:31:37.242Z,100554.53
2023-03-19T03:34:05.802Z,100560.94
2023-03-19T03:36:33.922Z,100557.66
2023-03-19T03:39:01.759Z,100561.53
2023-03-19T03:41:34.071Z,100559.09
2023-03-19T03:44:03.274Z,100558.50
2023-03-19T03:46:34.908Z,100552.59
2023-03-19T03:49:04.680Z,100552.81
2023-03-19T03:51:32.823Z,100560.03
2023-03-19T03:54:02.275Z,100553.28
2023-03-19T03:56:31.341Z,100553.41
2023-03-19T03:58:59.808Z,100553.66
2023-03-19T04:01:28.140Z,100559.06
2023-03-19T04:03:57.878Z,100561.81
2023-03-19T04:06:28.866Z,100556.66
2023-03-19T04:09:22.360Z,100562.91
2023-03-19T04:11:51.804Z,100562.91
2023-03-19T04:14:20.231Z,100570.00
2023-03-19T04:16:48.902Z,100564.81
2023-03-19T04:19:16.879Z,100569.88
2023-03-19T04:21:45.895Z,100561.94
2023-03-19T04:24:14.181Z,100561.09
2023-03-19T04:26:42.145Z,100560.13
2023-03-19T04:29:09.780Z,100560.97
2023-03-19T04:31:38.514Z,100552.91
2023-03-19T04:34:07.010Z,100556.41
2023-03-19T04:36:35.509Z,100561.59
2023-03-19T04:39:04.828Z,100559.78
2023-03-19T04:41:34.949Z,100558.84
2023-03-19T04:44:21.772Z,100563.16
2023-03-19T04:46:49.908Z,100563.03
2023-03-19T04:49:20.721Z,100557.66
2023-03-19T04:51:51.473Z,100563.66
2023-03-19T04:54:20.709Z,100562.47
2023-03-19T04:56:48.661Z,100570.50
2023-03-19T04:59:17.154Z,100568.59
2023-03-19T05:01:44.810Z,100565.81
2023-03-19T05:04:13.946Z,100561.38
2023-03-19T05:06:42.198Z,100570.88
2023-03-19T05:09:09.981Z,100572.44
2023-03-19T05:11:38.979Z,100574.97
2023-03-19T05:14:12.474Z,100580.13
2023-03-19T05:16:58.960Z,100584.25
2023-03-19T05:19:41.345Z,100586.75
2023-03-19T05:22:10.259Z,100590.88
2023-03-19T05:24:39.316Z,100588.22
2023-03-19T05:27:10.203Z,100589.06
2023-03-19T05:29:43.938Z,100586.19
2023-03-19T05:32:24.099Z,100586.56
2023-03-19T05:34:52.222Z,100589.44
2023-03-19T05:37:21.647Z,100600.75
2023-03-19T05:39:56.814Z,100590.16
2023-03-19T05:42:25.901Z,100591.50
2023-03-19T05:44:57.295Z,100590.41
2023-03-19T05:47:28.907Z,100592.34
2023-03-19T05:49:59.296Z,100589.56
2023-03-19T05:52:27.271Z,100598.97
2023-03-19T05:54:58.145Z,100601.34
2023-03-19T05:57:38.896Z,100608.09
2023-03-19T06:00:15.957Z,100606.88
2023-03-19T06:02:45.896Z,100605.94
2023-03-19T06:05:32.913Z,100615.31
2023-03-19T06:08:10.814Z,100607.97
2023-03-19T06:10:56.902Z,100614.84
2023-03-19T06:13:27.814Z,100622.56
2023-03-19T06:16:00.270Z,100617.00
2023-03-19T06:18:33.373Z,100622.91
2023-03-19T06:21:06.032Z,100619.28
2023-03-19T06:23:34.794Z,100620.75
2023-03-19T06:26:06.865Z,100624.09
2023-03-19T06:28:46.084Z,100625.69
2023-03-19T06:31:14.535Z,100621.81
2023-03-19T06:33:54.309Z,100625.91
2023-03-19T06:36:24.808Z,100630.59
2023-03-19T06:38:52.720Z,100623.38
2023-03-19T06:41:21.190Z,100628.28
2023-03-19T06:43:52.307Z,100627.09
2023-03-19T06:46:20.730Z,100634.69
2023-03-19T06:48:49.643Z,100638.88
2023-03-19T06:51:18.852Z,100646.34
2023-03-19T06:53:46.400Z,100643.59
2023-03-19T06:56:14.234Z,100652.25
2023-03-19T06:58:43.288Z,100647.56
2023-03-19T07:01:12.334Z,100649.94
2023-03-19T07:03:39.917Z,100652.94
2023-03-19T07:06:07.868Z,100654.28
2023-03-19T07:08:36.228Z,100664.25
2023-03-19T07:11:05.807Z,100670.75
2023-03-19T07:13:33.550Z,100672.78
2023-03-19T07:16:01.883Z,100673.81
2023-03-19T07:18:31.521Z,100673.09
2023-03-19T07:20:59.353Z,100670.53
2023-03-19T07:23:27.106Z,100669.59
2023-03-19T07:25:55.659Z,100661.47
2023-03-19T07:28:23.809Z,100674.59
2023-03-19T07:30:52.517Z,100666.88
2023-03-19T07:33:20.963Z,100665.75
2023-03-19T07:35:50.849Z,100678.84
2023-03-19T07:38:18.473Z,100684.13
2023-03-19T07:41:01.503Z,100678.88
2023-03-19T07:43:30.797Z,100677.66
2023-03-19T07:45:59.995Z,100687.63
2023-03-19T07:48:27.697Z,100690.56
2023-03-19T07:50:57.610Z,100683.97
2023-03-19T07:53:26.022Z,100688.47
2023-03-19T07:55:54.256Z,100685.09
2023-03-19T07:58:22.339Z,100693.78
2023-03-19T08:00:50.949Z,100700.34
2023-03-19T08:03:19.921Z,100704.13
2023-03-19T08:05:50.481Z,100710.72
2023-03-19T08:08:19.797Z,100703.28
2023-03-19T08:10:50.659Z,100704.53
2023-03-19T08:13:18.830Z,100701.19
2023-03-19T08:15:46.890Z,100707.34
2023-03-19T08:18:15.468Z,100706.91
2023-03-19T08:20:45.028Z,100708.47
2023-03-19T08:23:16.157Z,100709.72
2023-03-19T08:25:45.369Z,100718.41
2023-03-19T08:28:16.346Z,100714.16
2023-03-19T08:30:46.019Z,100718.34
2023-03-19T08:36:07.263Z,100714.25
2023-03-19T08:38:35.906Z,100717.06
2023-03-19T08:41:06.150Z,100724.22
2023-03-19T08:43:36.581Z,100729.25
2023-03-19T08:46:05.005Z,100729.66
2023-03-19T08:48:33.226Z,100724.03
2023-03-19T08:51:03.727Z,100725.13
2023-03-19T08:53:32.483Z,100731.00
2023-03-19T08:56:01.821Z,100729.69
2023-03-19T08:58:30.863Z,100737.25
2023-03-19T09:01:03.006Z,100741.75
2023-03-19T09:03:31.994Z,100739.97
2023-03-19T09:06:01.512Z,100740.84
2023-03-19T09:08:30.617Z,100744.47
2023-03-19T09:10:59.883Z,100750.94
2023-03-19T09:13:28.672Z,100750.22
2023-03-19T09:15:57.918Z,100747.25
2023-03-19T09:18:27.896Z,100751.44
2023-03-19T09:20:56.838Z,100753.59
2023-03-19T09:23:24.484Z,100754.56
2023-03-19T09:25:55.845Z,100755.94
2023-03-19T09:28:24.897Z,100755.78
2023-03-19T09:30:52.980Z,100755.66
2023-03-19T09:33:22.220Z,100761.91
2023-03-19T09:35:52.448Z,100770.25
2023-03-19T09:38:20.942Z,100767.81
2023-03-19T09:40:51.832Z,100774.66
2023-03-19T09:43:39.905Z,100768.81
2023-03-19T09:46:15.766Z,100778.34
2023-03-19T09:48:50.821Z,100781.69
2023-03-19T09:51:24.161Z,100774.91
2023-03-19T09:53:57.993Z,100781.09
2023-03-19T09:56:27.861Z,100775.66
2023-03-19T09:58:55.663Z,100778.88
2023-03-19T10:01:28.953Z,100773.22
2023-03-19T10:04:16.363Z,100783.03
2023-03-19T10:06:45.468Z,100777.59
2023-03-19T10:09:33.856Z,100781.28
2023-03-19T10:12:11.838Z,100774.09
2023-03-19T10:15:08.715Z,100771.59
2023-03-19T10:17:40.822Z,100778.72
2023-03-19T10:20:21.238Z,100782.16
2023-03-19T10:22:54.563Z,100784.59
2023-03-19T10:25:25.954Z,100786.25
2023-03-19T10:28:00.272Z,100787.44
2023-03-19T10:30:32.657Z,100784.44
2023-03-19T10:33:09.020Z,100787.94
2023-03-19T10:35:42.968Z,100791.16
2023-03-19T10:38:21.140Z,100793.53
2023-03-19T10:41:04.851Z,100789.53
2023-03-19T10:43:34.809Z,100795.44
2023-03-19T10:46:05.912Z,100799.78
2023-03-19T10:48:35.055Z,100797.88
2023-03-19T10:51:06.528Z,100809.25
2023-03-19T10:53:35.893Z,100804.75
2023-03-19T10:56:06.845Z,100800.56
2023-03-19T10:58:36.275Z,100803.91
2023-03-19T11:01:07.668Z,100796.56
2023-03-19T11:03:37.790Z,100808.00
2023-03-19T11:06:19.817Z,100808.56
2023-03-19T11:08:56.264Z,100806.19
2023-03-19T11:11:26.848Z,100810.91
2023-03-19T11:13:54.576Z,100806.94
2023-03-19T11:16:22.324Z,100802.63
2023-03-19T11:18:50.939Z,100803.31
2023-03-19T11:21:28.905Z,100798.31
2023-03-19T11:24:02.875Z,100799.22
2023-03-19T11:26:34.585Z,100792.25
2023-03-19T11:29:05.954Z,100792.78
2023-03-19T11:31:41.570Z,100791.44
2023-03-19T11:34:21.032Z,100797.84
2023-03-19T11:36:57.847Z,100801.06
2023-03-19T11:39:38.886Z,100796.06
2023-03-19T11:42:25.129Z,100791.47
2023-03-19T11:45:03.526Z,100798.84
2023-03-19T11:47:41.869Z,100792.03
2023-03-19T11:50:22.122Z,100794.75
2023-03-19T11:53:19.147Z,100797.28
2023-03-19T11:55:53.943Z,100793.13
2023-03-19T11:58:45.579Z,100790.09
2023-03-19T12:01:27.130Z,100795.81
2023-03-19T12:04:21.036Z,100789.13
2023-03-19T12:06:57.859Z,100789.16
2023-03-19T12:09:36.360Z,100792.66
2023-03-19T12:12:19.618Z,100789.31
2023-03-19T12:15:00.468Z,100789.16
2023-03-19T12:17:45.782Z,100789.00
2023-03-19T12:20:41.050Z,100798.38
2023-03-19T12:23:16.422Z,100796.03
2023-03-19T12:26:04.402Z,100801.06
2023-03-19T12:28:33.978Z,100794.03
2023-03-19T12:31:18.263Z,100789.66
2023-03-19T12:33:50.383Z,100791.69
2023-03-19T12:36:24.249Z,100791.69
2023-03-19T12:38:57.291Z,100790.19
2023-03-19T12:41:29.842Z,100784.16
2023-03-19T12:44:02.983Z,100786.00
2023-03-19T12:46:34.922Z,100777.09
2023-03-19T12:49:08.007Z,100782.31
2023-03-19T12:51:40.445Z,100785.84
2023-03-19T12:54:15.105Z,100784.16
2023-03-19T12:56:50.010Z,100787.00
2023-03-19T12:59:25.768Z,100785.66
2023-03-19T13:02:00.777Z,100784.47
2023-03-19T13:04:34.055Z,100786.47
2023-03-19T13:07:07.861Z,100784.31
2023-03-19T13:09:41.928Z,100788.84
2023-03-19T13:12:18.416Z,100793.50
2023-03-19T13:14:53.864Z,100797.19
2023-03-19T13:17:27.926Z,100794.19
2023-03-19T13:19:56.825Z,100793.66
2023-03-19T13:22:28.938Z,100795.56
2023-03-19T13:24:57.950Z,100792.19
2023-03-19T13:27:31.325Z,100793.53
2023-03-19T13:30:16.898Z,100789.19
2023-03-19T13:32:49.246Z,100780.47
2023-03-19T13:35:34.649Z,100783.50
2023-03-19T13:38:07.627Z,100782.69
2023-03-19T13:40:44.784Z,100785.03
2023-03-19T13:43:42.875Z,100774.63
2023-03-19T13:46:46.099Z,100779.81
2023-03-19T13:49:28.773Z,100780.84
2023-03-19T13:52:01.337Z,100783.34
2023-03-19T13:54:40.297Z,100780.03
2023-03-19T13:57:24.856Z,100774.81
2023-03-19T13:59:56.472Z,100778.31
2023-03-19T14:02:48.441Z,100778.81
2023-03-19T14:05:22.589Z,100782.00
2023-03-19T14:07:55.964Z,100783.66
2023-03-19T14:10:27.840Z,100785.19
2023-03-19T14:13:10.043Z,100792.22
2023-03-19T14:15:48.910Z,100792.53
2023-03-19T14:18:20.103Z,100787.34
2023-03-19T14:20:59.205Z,100789.84
2023-03-19T14:23:39.582Z,100794.22
2023-03-19T14:26:17.534Z,100794.88
2023-03-19T14:28:55.762Z,100793.53
2023-03-19T14:31:41.558Z,100792.19
2023-03-19T14:34:22.859Z,100784.63
2023-03-19T14:36:58.795Z,100791.69
2023-03-19T14:39:30.031Z,100787.66
2023-03-19T14:42:03.932Z,100789.97
2023-03-19T14:45:16.842Z,100794.38
2023-03-19T14:48:04.966Z,100793.19
2023-03-19T14:51:12.902Z,100792.03
2023-03-19T14:53:46.021Z,100789.00
2023-03-19T14:56:17.153Z,100795.56
2023-03-19T14:58:52.202Z,100794.38
2023-03-19T15:01:51.928Z,100795.91
2023-03-19T15:04:27.120Z,100792.22
2023-03-19T15:06:58.962Z,100792.03
2023-03-19T15:09:29.825Z,100799.94
2023-03-19T15:12:20.728Z,100794.53
2023-03-19T15:15:09.594Z,100795.19
2023-03-19T15:17:38.842Z,100793.53
2023-03-19T15:20:18.418Z,100800.06
2023-03-19T15:22:54.932Z,100801.22
2023-03-19T15:25:24.630Z,100801.41
2023-03-19T15:28:09.935Z,100792.53
2023-03-19T15:30:52.335Z,100806.75
2023-03-19T15:33:39.008Z,100803.38
2023-03-19T15:36:17.290Z,100795.69
2023-03-19T15:38:48.975Z,100799.19
2023-03-19T15:41:18.631Z,100800.53
2023-03-19T15:43:46.938Z,100797.19
2023-03-19T15:46:21.134Z,100799.19
2023-03-19T15:48:53.655Z,100800.34
2023-03-19T15:51:24.474Z,100802.66
2023-03-19T15:53:55.881Z,100800.16
2023-03-19T15:56:26.876Z,100804.50
2023-03-19T15:58:58.000Z,100805.50
2023-03-19T16:01:27.904Z,100804.47
2023-03-19T16:04:00.257Z,100802.94
2023-03-19T16:06:31.444Z,100812.00
2023-03-19T16:09:16.433Z,100813.81
2023-03-19T16:11:46.028Z,100815.66
2023-03-19T16:14:24.133Z,100818.00
2023-03-19T16:16:52.984Z,100816.31
2023-03-19T16:19:36.126Z,100824.47
2023-03-19T16:22:13.958Z,100824.47
2023-03-19T16:24:43.429Z,100824.47
2023-03-19T16:27:15.148Z,100826.31
2023-03-19T16:29:48.873Z,100825.34
2023-03-19T16:32:21.485Z,100834.34
2023-03-19T16:34:52.123Z,100830.00
2023-03-19T16:37:44.005Z,100837.22
2023-03-19T16:40:40.762Z,100839.03
2023-03-19T16:43:13.883Z,100839.22
2023-03-19T16:45:43.219Z,100845.72
2023-03-19T16:48:11.436Z,100834.34
2023-03-19T16:50:40.808Z,100843.53
2023-03-19T16:53:21.267Z,100841.16
2023-03-19T16:55:49.670Z,100838.81
2023-03-19T16:58:19.096Z,100848.97
2023-03-19T17:00:48.841Z,100849.13
2023-03-19T17:03:18.945Z,100849.59
2023-03-19T17:05:47.915Z,100859.09
2023-03-19T17:08:17.242Z,100860.41
2023-03-19T17:10:49.094Z,100867.06
2023-03-19T17:13:20.729Z,100877.53
2023-03-19T17:15:50.324Z,100876.50
2023-03-19T17:18:20.190Z,100881.63
2023-03-19T17:20:53.085Z,100890.09
2023-03-19T17:23:24.878Z,100887.22
2023-03-19T17:25:54.897Z,100892.06
2023-03-19T17:28:22.966Z,100890.84
2023-03-19T17:30:51.782Z,100887.78
2023-03-19T17:33:24.629Z,100899.09
2023-03-19T17:35:53.394Z,100899.53
2023-03-19T17:38:23.745Z,100901.97
2023-03-19T17:40:51.861Z,100892.72
2023-03-19T17:43:19.702Z,100902.19
2023-03-19T17:45:48.435Z,100907.97
2023-03-19T17:48:21.365Z,100908.75
2023-03-19T17:50:49.900Z,100904.84
2023-03-19T17:53:18.669Z,100915.13
2023-03-19T17:55:47.809Z,100920.19
2023-03-19T17:58:18.585Z,100912.78
2023-03-19T18:00:48.880Z,100920.41
2023-03-19T18:03:19.064Z,100925.34
2023-03-19T18:05:46.949Z,100928.59
2023-03-19T18:08:16.576Z,100934.41
2023-03-19T18:10:44.546Z,100931.16
2023-03-19T18:13:13.716Z,100932.59
2023-03-19T18:15:43.925Z,100937.38
2023-03-19T18:18:17.824Z,100943.28
2023-03-19T18:20:46.536Z,100940.22
2023-03-19T18:23:16.871Z,100943.47
2023-03-19T18:25:46.092Z,100949.25
2023-03-19T18:28:16.012Z,100952.34
2023-03-19T18:30:45.841Z,100955.44
2023-03-19T18:33:17.388Z,100959.38
2023-03-19T18:35:46.508Z,100970.50
2023-03-19T18:38:17.528Z,100969.94
2023-03-19T18:40:45.923Z,100980.91
2023-03-19T18:43:16.035Z,100984.81
2023-03-19T18:45:49.356Z,100989.59
2023-03-19T18:48:26.463Z,100991.56
2023-03-19T18:50:55.708Z,100989.16
2023-03-19T18:53:24.150Z,100998.44
2023-03-19T18:55:52.211Z,100999.56
2023-03-19T18:58:23.561Z,100998.16
2023-03-19T19:00:54.187Z,101005.59
2023-03-19T19:03:28.335Z,101009.50
2023-03-19T19:05:56.210Z,101018.91
2023-03-19T19:08:25.289Z,101015.94
2023-03-19T19:10:56.337Z,101019.16
2023-03-19T19:13:27.240Z,101015.34
2023-03-19T19:15:56.830Z,101018.56
2023-03-19T19:18:26.889Z,101025.56
2023-03-19T19:20:55.884Z,101028.03
2023-03-19T19:23:26.596Z,101031.38
2023-03-19T19:25:55.142Z,101027.59
2023-03-19T19:28:26.680Z,101035.38
2023-03-19T19:30:57.443Z,101044.75
2023-03-19T19:33:27.655Z,101044.44
2023-03-19T19:35:56.275Z,101039.50
2023-03-19T19:38:23.955Z,101051.41
2023-03-19T19:40:54.716Z,101058.25
2023-03-19T19:43:26.878Z,101062.97
2023-03-19T19:45:57.853Z,101067.00
2023-03-19T19:48:27.679Z,101070.06
2023-03-19T19:50:56.483Z,101076.63
2023-03-19T19:53:26.144Z,101081.50
2023-03-19T19:55:55.369Z,101079.22
2023-03-19T19:58:27.037Z,101092.06
2023-03-19T20:01:03.420Z,101093.56
2023-03-19T20:03:33.897Z,101094.53
2023-03-19T20:06:02.934Z,101093.19
2023-03-19T20:08:30.723Z,101098.59
2023-03-19T20:10:58.461Z,101091.34
2023-03-19T20:13:28.960Z,101105.50
2023-03-19T20:16:02.031Z,101101.59
2023-03-19T20:18:33.277Z,101105.22
2023-03-19T20:21:01.098Z,101111.28
2023-03-19T20:23:29.236Z,101109.94
2023-03-19T20:25:58.144Z,101110.63
2023-03-19T20:28:30.878Z,101113.16
2023-03-19T20:31:01.996Z,101110.63
2023-03-19T20:33:31.152Z,101112.59
2023-03-19T20:35:58.888Z,101119.00
2023-03-19T20:38:29.214Z,101124.47
2023-03-19T20:40:58.825Z,101132.44
2023-03-19T20:43:29.977Z,101125.28
2023-03-19T20:46:01.794Z,101128.94
2023-03-19T20:48:30.910Z,101131.84
2023-03-19T20:51:01.966Z,101137.66
2023-03-19T20:53:30.445Z,101133.47
2023-03-19T20:55:59.951Z,101137.19
2023-03-19T20:58:30.776Z,101148.13
2023-03-19T21:01:00.196Z,101150.31
2023-03-19T21:03:32.189Z,101148.00
2023-03-19T21:06:03.892Z,101144.78
2023-03-19T21:08:34.444Z,101149.50
2023-03-19T21:11:02.965Z,101145.38
2023-03-19T21:13:31.951Z,101149.16
2023-03-19T21:16:01.879Z,101155.69
2023-03-19T21:18:29.554Z,101153.28
2023-03-19T21:20:58.763Z,101155.31
2023-03-19T21:23:30.892Z,101153.84
2023-03-19T21:26:00.874Z,101153.41
2023-03-19T21:28:32.394Z,101147.59
2023-03-19T21:31:02.143Z,101150.63
2023-03-19T21:33:31.536Z,101143.97
2023-03-19T21:36:00.758Z,101155.94
2023-03-19T21:38:29.354Z,101156.44
2023-03-19T21:41:01.240Z,101156.78
2023-03-19T21:43:33.434Z,101159.09
2023-03-19T21:46:17.384Z,101153.41
2023-03-19T21:48:51.812Z,101154.72
2023-03-19T21:51:19.644Z,101156.91
2023-03-19T21:53:47.542Z,101158.22
2023-03-19T21:56:22.301Z,101159.53
2023-03-19T21:58:51.964Z,101161.69
2023-03-19T22:01:23.510Z,101158.59
2023-03-19T22:03:52.500Z,101144.81
2023-03-19T22:06:21.877Z,101146.97
2023-03-19T22:08:54.942Z,101147.31
2023-03-19T22:11:26.900Z,101154.78
2023-03-19T22:13:58.470Z,101157.91
2023-03-19T22:16:28.884Z,101156.56
2023-03-19T22:18:57.984Z,101166.66
2023-03-19T22:21:25.589Z,101169.69
2023-03-19T22:23:53.214Z,101163.88
2023-03-19T22:26:31.850Z,101167.00
2023-03-19T22:29:01.898Z,101164.81
2023-03-19T22:31:31.959Z,101174.91
2023-03-19T22:34:00.455Z,101171.88
2023-03-19T22:36:29.046Z,101166.25
2023-03-19T22:38:57.899Z,101166.00
2023-03-19T22:41:30.136Z,101164.75
2023-03-19T22:43:59.116Z,101168.69
2023-03-19T22:46:27.635Z,101170.78
2023-03-19T22:48:56.784Z,101174.72
2023-03-19T22:51:28.070Z,101172.31
2023-03-19T22:53:57.376Z,101171.88
2023-03-19T22:56:24.958Z,101181.03
2023-03-19T22:58:52.931Z,101182.31
2023-03-19T23:01:31.265Z,101188.78
2023-03-19T23:04:15.764Z,101196.31
2023-03-19T23:06:44.354Z,101189.66
2023-03-19T23:09:16.419Z,101195.25
2023-03-19T23:11:44.012Z,101189.34
2023-03-19T23:14:26.040Z,101189.44
2023-03-19T23:16:56.782Z,101195.81
2023-03-19T23:19:29.036Z,101201.22
2023-03-19T23:21:58.995Z,101209.16
2023-03-19T23:24:28.036Z,101202.06
2023-03-19T23:26:58.953Z,101206.41
2023-03-19T23:29:31.307Z,101215.19
2023-03-19T23:31:59.358Z,101216.03
2023-03-19T23:34:29.349Z,101221.22
2023-03-19T23:36:59.785Z,101222.84
2023-03-19T23:39:28.764Z,101230.53
2023-03-19T23:41:59.026Z,101226.00
2023-03-19T23:44:28.808Z,101229.28
2023-03-19T23:46:59.812Z,101224.72
2023-03-19T23:49:32.096Z,101224.38
2023-03-19T23:52:00.523Z,101224.19
2023-03-19T23:54:30.533Z,101220.47
2023-03-19T23:57:00.967Z,101223.75
2023-03-19T23:59:37.783Z,101235.94
